createdAt,value
2023-01-22T00:00:58.170Z,2.30
2023-01-22T00:03:46.756Z,2.30
2023-01-22T00:06:33.826Z,2.30
2023-01-22T00:09:22.361Z,2.20
2023-01-22T00:12:09.608Z,2.20
2023-01-22T00:14:56.515Z,2.20
2023-01-22T00:17:44.194Z,2.10
2023-01-22T00:20:30.842Z,2.10
2023-01-22T00:23:17.456Z,2.10
2023-01-22T00:26:05.110Z,2.00
2023-01-22T00:28:51.515Z,2.10
2023-01-22T00:31:38.593Z,2.00
2023-01-22T00:34:26.762Z,2.10
2023-01-22T00:37:13.186Z,2.10
2023-01-22T00:40:00.247Z,2.10
2023-01-22T00:42:47.014Z,2.00
2023-01-22T00:45:34.179Z,1.90
2023-01-22T00:48:20.969Z,2.00
2023-01-22T00:51:10.030Z,2.00
2023-01-22T00:53:56.470Z,2.00
2023-01-22T00:56:42.866Z,1.90
2023-01-22T00:59:29.135Z,1.90
2023-01-22T01:02:15.670Z,1.90
2023-01-22T01:05:02.537Z,1.90
2023-01-22T01:07:50.240Z,1.90
2023-01-22T01:10:36.848Z,1.90
2023-01-22T01:13:23.373Z,1.90
2023-01-22T01:16:14.062Z,1.90
2023-01-22T01:19:00.604Z,1.90
2023-01-22T01:21:47.213Z,2.00
2023-01-22T01:24:36.512Z,1.90
2023-01-22T01:27:22.977Z,1.90
2023-01-22T01:30:10.759Z,1.90
2023-01-22T01:32:57.198Z,1.90
2023-01-22T01:35:43.613Z,1.80
2023-01-22T01:38:30.091Z,1.80
2023-01-22T01:41:21.828Z,1.80
2023-01-22T01:44:14.040Z,1.80
2023-01-22T01:47:05.349Z,1.80
2023-01-22T01:49:54.547Z,1.80
2023-01-22T01:52:41.589Z,1.80
2023-01-22T01:55:30.979Z,1.80
2023-01-22T01:58:21.703Z,1.80
2023-01-22T02:01:12.701Z,1.80
2023-01-22T02:03:59.593Z,1.80
2023-01-22T02:06:46.039Z,1.70
2023-01-22T02:09:32.672Z,1.70
2023-01-22T02:12:19.384Z,1.70
2023-01-22T02:15:09.478Z,1.70
2023-01-22T02:17:55.948Z,1.70
2023-01-22T02:20:53.220Z,1.70
2023-01-22T02:23:39.961Z,1.70
2023-01-22T02:26:26.488Z,1.70
2023-01-22T02:29:15.369Z,1.70
2023-01-22T02:32:01.934Z,1.70
2023-01-22T02:34:48.437Z,1.70
2023-01-22T02:37:36.061Z,1.70
2023-01-22T02:40:22.914Z,1.70
2023-01-22T02:43:09.382Z,1.70
2023-01-22T02:45:55.763Z,1.70
2023-01-22T02:48:42.708Z,0.90
2023-01-22T02:51:29.228Z,1.70
2023-01-22T02:54:17.036Z,1.70
2023-01-22T02:57:03.482Z,1.70
2023-01-22T02:59:50.199Z,2.30
2023-01-22T03:02:36.789Z,1.70
2023-01-22T03:05:23.284Z,1.70
2023-01-22T03:08:09.829Z,1.70
2023-01-22T03:11:00.476Z,1.60
2023-01-22T03:14:04.904Z,1.70
2023-01-22T03:17:08.869Z,1.60
2023-01-22T03:20:12.799Z,1.60
2023-01-22T03:23:00.384Z,1.60
2023-01-22T03:25:47.022Z,1.60
2023-01-22T03:28:34.919Z,1.70
2023-01-22T03:31:21.760Z,1.60
2023-01-22T03:34:08.613Z,1.60
2023-01-22T03:36:54.982Z,1.60
2023-01-22T03:39:41.644Z,1.60
2023-01-22T03:42:28.395Z,1.70
2023-01-22T03:45:16.250Z,1.60
2023-01-22T03:48:02.981Z,1.60
2023-01-22T03:50:49.391Z,1.60
2023-01-22T03:53:36.029Z,1.60
2023-01-22T03:56:24.127Z,1.70
2023-01-22T03:59:11.681Z,1.60
2023-01-22T04:01:59.729Z,1.60
2023-01-22T04:04:47.787Z,1.60
2023-01-22T04:07:34.409Z,1.60
2023-01-22T04:10:20.881Z,1.60
2023-01-22T04:13:07.515Z,1.60
2023-01-22T04:15:54.099Z,1.60
2023-01-22T04:18:42.274Z,1.60
2023-01-22T04:21:29.008Z,1.50
2023-01-22T04:24:15.467Z,1.50
2023-01-22T04:27:01.705Z,1.50
2023-01-22T04:29:48.113Z,1.50
2023-01-22T04:32:34.655Z,1.50
2023-01-22T04:35:22.483Z,1.50
2023-01-22T04:38:12.778Z,1.50
2023-01-22T04:40:59.254Z,1.50
2023-01-22T04:43:45.755Z,1.50
2023-01-22T04:46:32.119Z,1.50
2023-01-22T04:49:18.552Z,1.50
2023-01-22T04:52:06.644Z,1.50
2023-01-22T04:54:53.913Z,1.50
2023-01-22T04:57:40.633Z,1.50
2023-01-22T05:00:28.003Z,1.50
2023-01-22T05:03:15.225Z,1.50
2023-01-22T05:06:04.373Z,1.50
2023-01-22T05:08:52.310Z,1.50
2023-01-22T05:11:39.025Z,1.50
2023-01-22T05:14:25.383Z,1.50
2023-01-22T05:17:11.770Z,1.50
2023-01-22T05:19:58.225Z,1.50
2023-01-22T05:22:44.484Z,1.60
2023-01-22T05:25:32.196Z,1.60
2023-01-22T05:28:19.012Z,1.50
2023-01-22T05:31:05.632Z,1.60
2023-01-22T05:33:52.099Z,1.50
2023-01-22T05:36:38.564Z,1.60
2023-01-22T05:39:24.932Z,1.50
2023-01-22T05:42:15.863Z,1.50
2023-01-22T05:45:02.429Z,1.50
2023-01-22T05:47:53.117Z,1.50
2023-01-22T05:50:41.031Z,1.50
2023-01-22T05:53:27.498Z,1.50
2023-01-22T05:56:13.883Z,1.60
2023-01-22T05:59:01.802Z,1.60
2023-01-22T06:01:48.387Z,1.60
2023-01-22T06:04:34.685Z,3.00
2023-01-22T06:07:21.073Z,1.60
2023-01-22T06:10:08.763Z,1.60
2023-01-22T06:12:55.097Z,1.60
2023-01-22T06:15:44.364Z,1.60
2023-01-22T06:18:31.048Z,1.60
2023-01-22T06:21:17.729Z,1.60
2023-01-22T06:24:04.373Z,1.60
2023-01-22T06:26:50.889Z,1.70
2023-01-22T06:29:39.888Z,1.70
2023-01-22T06:32:28.047Z,1.70
2023-01-22T06:35:14.709Z,1.60
2023-01-22T06:38:01.132Z,1.60
2023-01-22T06:40:52.306Z,1.70
2023-01-22T06:43:38.821Z,1.70
2023-01-22T06:46:25.371Z,1.70
2023-01-22T06:49:13.964Z,1.70
2023-01-22T06:52:00.317Z,1.70
2023-01-22T06:54:47.257Z,1.70
2023-01-22T06:57:33.680Z,1.70
2023-01-22T07:00:21.137Z,1.70
2023-01-22T07:03:08.883Z,1.70
2023-01-22T07:06:00.938Z,1.70
2023-01-22T07:08:47.396Z,1.70
2023-01-22T07:11:33.744Z,1.80
2023-01-22T07:14:35.723Z,1.70
2023-01-22T07:17:23.101Z,1.80
2023-01-22T07:20:10.983Z,1.80
2023-01-22T07:23:00.496Z,1.80
2023-01-22T07:25:47.448Z,1.80
2023-01-22T07:28:34.199Z,1.80
2023-01-22T07:31:20.901Z,1.80
2023-01-22T07:34:07.656Z,1.80
2023-01-22T07:36:54.481Z,1.80
2023-01-22T07:39:42.132Z,1.90
2023-01-22T07:42:28.483Z,1.80
2023-01-22T07:45:14.998Z,1.90
2023-01-22T07:48:02.600Z,1.90
2023-01-22T07:50:49.346Z,1.90
2023-01-22T07:53:36.611Z,1.90
2023-01-22T07:56:24.650Z,1.90
2023-01-22T07:59:11.268Z,1.90
2023-01-22T08:01:58.126Z,1.90
2023-01-22T08:04:44.827Z,1.90
2023-01-22T08:07:31.437Z,1.90
2023-01-22T08:10:18.926Z,1.90
2023-01-22T08:13:07.010Z,2.00
2023-01-22T08:15:55.029Z,2.00
2023-01-22T08:18:41.590Z,1.90
2023-01-22T08:21:27.957Z,2.00
2023-01-22T08:24:14.356Z,2.00
2023-01-22T08:27:00.785Z,1.90
2023-01-22T08:29:51.693Z,2.00
2023-01-22T08:32:41.243Z,2.00
2023-01-22T08:35:27.745Z,2.10
2023-01-22T08:38:14.912Z,2.10
2023-01-22T08:41:01.461Z,2.10
2023-01-22T08:43:48.013Z,2.10
2023-01-22T08:46:36.058Z,2.10
2023-01-22T08:49:22.604Z,2.10
2023-01-22T08:52:09.127Z,2.10
2023-01-22T08:54:55.542Z,2.20
2023-01-22T08:57:42.003Z,2.20
2023-01-22T09:00:28.462Z,2.20
2023-01-22T09:03:16.253Z,2.20
2023-01-22T09:06:02.957Z,2.20
2023-01-22T09:08:49.419Z,2.30
2023-01-22T09:11:36.065Z,2.30
2023-01-22T09:14:22.829Z,2.30
2023-01-22T09:17:09.616Z,2.30
2023-01-22T09:19:58.636Z,2.30
2023-01-22T09:22:46.555Z,2.30
2023-01-22T09:25:33.220Z,2.40
2023-01-22T09:28:19.622Z,2.30
2023-01-22T09:31:06.430Z,2.30
2023-01-22T09:33:54.881Z,2.40
2023-01-22T09:36:43.247Z,2.50
2023-01-22T09:39:29.814Z,2.50
2023-01-22T09:42:20.527Z,2.50
2023-01-22T09:45:12.812Z,2.40
2023-01-22T09:48:02.835Z,2.50
2023-01-22T09:50:50.725Z,2.60
2023-01-22T09:53:38.912Z,2.50
2023-01-22T09:56:35.040Z,2.60
2023-01-22T09:59:23.577Z,2.60
2023-01-22T10:02:22.394Z,2.60
2023-01-22T10:05:18.926Z,2.60
2023-01-22T10:08:11.258Z,2.60
2023-01-22T10:11:01.689Z,2.60
2023-01-22T10:13:50.770Z,2.60
2023-01-22T10:16:38.335Z,2.60
2023-01-22T10:19:28.458Z,2.60
2023-01-22T10:22:19.759Z,2.60
2023-01-22T10:25:07.337Z,2.60
2023-01-22T10:28:04.208Z,2.60
2023-01-22T10:30:53.094Z,2.70
2023-01-22T10:33:44.434Z,2.60
2023-01-22T10:36:32.219Z,2.60
2023-01-22T10:39:20.456Z,2.70
2023-01-22T10:42:07.303Z,2.60
2023-01-22T10:44:58.600Z,2.60
2023-01-22T10:47:45.030Z,2.60
2023-01-22T10:50:31.382Z,2.70
2023-01-22T10:53:33.595Z,2.80
2023-01-22T10:56:30.014Z,2.70
2023-01-22T10:59:27.045Z,2.70
2023-01-22T11:02:21.522Z,2.80
2023-01-22T11:05:14.799Z,2.80
2023-01-22T11:08:04.823Z,2.80
2023-01-22T11:10:55.382Z,2.80
2023-01-22T11:13:50.176Z,2.80
2023-01-22T11:16:39.800Z,2.90
2023-01-22T11:19:37.600Z,2.90
2023-01-22T11:22:30.059Z,2.80
2023-01-22T11:25:16.598Z,2.90
2023-01-22T11:28:12.955Z,2.90
2023-01-22T11:31:13.139Z,2.90
2023-01-22T11:34:30.225Z,2.90
2023-01-22T11:37:20.377Z,2.90
2023-01-22T11:40:23.411Z,2.90
2023-01-22T11:43:29.784Z,2.90
2023-01-22T11:46:33.921Z,2.90
2023-01-22T11:49:34.677Z,2.90
2023-01-22T11:55:04.194Z,2.90
2023-01-22T11:57:59.099Z,2.90
2023-01-22T12:00:50.978Z,2.90
2023-01-22T12:03:56.744Z,2.90
2023-01-22T12:07:03.468Z,2.90
2023-01-22T12:09:56.001Z,2.90
2023-01-22T12:12:50.138Z,2.90
2023-01-22T12:15:45.483Z,2.90
2023-01-22T12:18:59.156Z,2.90
2023-01-22T12:21:59.331Z,2.90
2023-01-22T12:24:51.361Z,2.90
2023-01-22T12:27:41.980Z,2.90
2023-01-22T12:30:35.020Z,2.90
2023-01-22T12:33:26.433Z,2.90
2023-01-22T12:36:19.239Z,3.00
2023-01-22T12:39:17.051Z,3.00
2023-01-22T12:42:16.784Z,3.00
2023-01-22T12:45:08.080Z,3.00
2023-01-22T12:47:59.938Z,3.00
2023-01-22T12:50:50.745Z,2.90
2023-01-22T12:53:39.180Z,3.00
2023-01-22T12:56:34.023Z,3.00
2023-01-22T12:59:42.860Z,3.00
2023-01-22T13:02:37.946Z,3.00
2023-01-22T13:05:41.066Z,3.00
2023-01-22T13:08:36.739Z,3.00
2023-01-22T13:11:30.961Z,3.10
2023-01-22T13:14:23.421Z,3.00
2023-01-22T13:17:19.791Z,3.10
2023-01-22T13:20:16.212Z,3.10
2023-01-22T13:23:05.911Z,3.00
2023-01-22T13:25:55.739Z,3.00
2023-01-22T13:28:42.859Z,3.00
2023-01-22T13:31:30.692Z,3.00
2023-01-22T13:34:17.264Z,3.00
2023-01-22T13:37:03.735Z,3.10
2023-01-22T13:39:50.180Z,3.00
2023-01-22T13:42:36.841Z,3.00
2023-01-22T13:45:26.638Z,3.10
2023-01-22T13:48:18.777Z,3.10
2023-01-22T13:51:08.966Z,3.10
2023-01-22T13:53:56.611Z,3.10
2023-01-22T13:56:43.608Z,3.10
2023-01-22T13:59:35.067Z,3.20
2023-01-22T14:02:31.942Z,3.10
2023-01-22T14:05:22.786Z,3.20
2023-01-22T14:08:12.505Z,3.20
2023-01-22T14:10:59.894Z,3.20
2023-01-22T14:13:48.602Z,3.30
2023-01-22T14:16:41.459Z,3.20
2023-01-22T14:19:29.096Z,3.20
2023-01-22T14:22:16.964Z,3.20
2023-01-22T14:25:03.725Z,3.20
2023-01-22T14:27:51.345Z,3.10
2023-01-22T14:30:37.878Z,3.20
2023-01-22T14:33:26.393Z,3.20
2023-01-22T14:36:13.104Z,3.20
2023-01-22T14:39:00.923Z,3.20
2023-01-22T14:41:49.481Z,3.10
2023-01-22T14:44:37.014Z,3.10
2023-01-22T14:47:23.763Z,3.20
2023-01-22T14:50:11.798Z,3.10
2023-01-22T14:52:58.708Z,3.10
2023-01-22T14:55:46.595Z,3.20
2023-01-22T14:58:33.199Z,3.20
2023-01-22T15:01:21.204Z,3.20
2023-01-22T15:04:08.342Z,3.20
2023-01-22T15:06:55.009Z,3.20
2023-01-22T15:09:41.668Z,3.20
2023-01-22T15:12:29.816Z,3.20
2023-01-22T15:15:16.869Z,3.20
2023-01-22T15:18:03.180Z,3.20
2023-01-22T15:20:49.590Z,3.20
2023-01-22T15:23:36.594Z,3.20
2023-01-22T15:26:28.285Z,3.20
2023-01-22T15:29:16.336Z,3.20
2023-01-22T15:32:02.957Z,3.30
2023-01-22T15:34:49.567Z,3.20
2023-01-22T15:37:36.116Z,3.20
2023-01-22T15:40:22.409Z,3.20
2023-01-22T15:43:08.938Z,3.30
2023-01-22T15:45:56.850Z,3.30
2023-01-22T15:48:43.578Z,3.30
2023-01-22T15:51:30.988Z,3.30
2023-01-22T15:54:17.978Z,3.30
2023-01-22T15:57:04.789Z,3.30
2023-01-22T15:59:51.569Z,3.30
2023-01-22T16:02:39.527Z,3.30
2023-01-22T16:05:26.227Z,3.30
2023-01-22T16:08:12.614Z,3.30
2023-01-22T16:10:59.226Z,3.30
2023-01-22T16:13:46.105Z,3.30
2023-01-22T16:16:34.961Z,3.30
2023-01-22T16:19:24.082Z,3.40
2023-01-22T16:22:11.095Z,3.30
2023-01-22T16:24:57.499Z,3.30
2023-01-22T16:27:44.865Z,3.30
2023-01-22T16:30:31.241Z,3.40
2023-01-22T16:33:20.837Z,3.40
2023-01-22T16:36:13.071Z,3.30
2023-01-22T16:38:59.393Z,3.40
2023-01-22T16:41:48.071Z,3.40
2023-01-22T16:44:34.709Z,3.40
2023-01-22T16:47:21.060Z,3.40
2023-01-22T16:50:10.265Z,3.30
2023-01-22T16:52:58.557Z,3.40
2023-01-22T16:55:45.016Z,3.40
2023-01-22T16:58:31.462Z,3.40
2023-01-22T17:01:18.006Z,3.40
2023-01-22T17:04:05.002Z,2.70
2023-01-22T17:06:53.113Z,3.40
2023-01-22T17:09:41.255Z,3.50
2023-01-22T17:12:28.063Z,3.40
2023-01-22T17:15:14.528Z,3.40
2023-01-22T17:18:00.776Z,3.50
2023-01-22T17:21:01.414Z,3.50
2023-01-22T17:23:48.799Z,3.50
2023-01-22T17:26:36.523Z,3.50
2023-01-22T17:29:23.587Z,3.50
2023-01-22T17:32:10.123Z,3.50
2023-01-22T17:34:56.469Z,3.40
2023-01-22T17:37:43.090Z,3.50
2023-01-22T17:40:29.846Z,3.50
2023-01-22T17:43:17.511Z,3.50
2023-01-22T17:46:08.533Z,3.50
2023-01-22T17:48:56.656Z,3.50
2023-01-22T17:51:45.151Z,3.50
2023-01-22T17:54:31.488Z,3.50
2023-01-22T17:57:17.883Z,3.40
2023-01-22T18:00:06.905Z,3.50
2023-01-22T18:02:53.576Z,3.40
2023-01-22T18:05:40.488Z,3.50
2023-01-22T18:08:28.495Z,3.40
2023-01-22T18:11:17.492Z,3.40
2023-01-22T18:14:07.157Z,3.40
2023-01-22T18:16:55.752Z,3.30
2023-01-22T18:19:42.391Z,3.40
2023-01-22T18:22:28.887Z,3.40
2023-01-22T18:25:15.287Z,3.40
2023-01-22T18:28:01.698Z,3.50
2023-01-22T18:30:48.598Z,3.40
2023-01-22T18:33:37.584Z,3.40
2023-01-22T18:36:26.142Z,3.50
2023-01-22T18:39:14.942Z,3.40
2023-01-22T18:42:01.567Z,3.50
2023-01-22T18:44:47.993Z,3.40
2023-01-22T18:47:34.699Z,3.50
2023-01-22T18:50:22.665Z,3.50
2023-01-22T18:53:10.171Z,3.50
2023-01-22T18:56:00.142Z,3.50
2023-01-22T18:58:48.090Z,3.50
2023-01-22T19:01:36.443Z,3.50
2023-01-22T19:04:23.626Z,3.50
2023-01-22T19:07:11.642Z,3.50
2023-01-22T19:09:59.617Z,3.50
2023-01-22T19:12:46.701Z,3.50
2023-01-22T19:15:34.024Z,3.40
2023-01-22T19:18:20.326Z,3.50
2023-01-22T19:21:08.713Z,3.50
2023-01-22T19:23:58.087Z,3.50
2023-01-22T19:26:46.598Z,3.50
2023-01-22T19:29:33.499Z,3.50
2023-01-22T19:32:27.566Z,3.50
2023-01-22T19:35:14.340Z,3.50
2023-01-22T19:38:00.647Z,3.50
2023-01-22T19:40:48.466Z,3.50
2023-01-22T19:43:34.809Z,3.50
2023-01-22T19:46:21.348Z,3.50
2023-01-22T19:49:08.957Z,3.40
2023-01-22T19:51:55.644Z,3.50
2023-01-22T19:54:47.309Z,3.50
2023-01-22T19:57:35.453Z,3.50
2023-01-22T20:00:22.692Z,3.50
2023-01-22T20:03:09.401Z,3.50
2023-01-22T20:05:55.965Z,3.50
2023-01-22T20:08:42.961Z,3.50
2023-01-22T20:11:29.296Z,3.50
2023-01-22T20:14:17.194Z,3.50
2023-01-22T20:17:04.109Z,3.50
2023-01-22T20:19:50.500Z,3.50
2023-01-22T20:22:36.880Z,3.50
2023-01-22T20:25:23.601Z,3.40
2023-01-22T20:28:13.444Z,3.50
2023-01-22T20:31:04.057Z,3.50
2023-01-22T20:33:52.437Z,3.40
2023-01-22T20:36:39.706Z,3.50
2023-01-22T20:39:26.639Z,3.50
2023-01-22T20:42:13.204Z,3.50
2023-01-22T20:45:00.099Z,3.50
2023-01-22T20:47:48.357Z,3.50
2023-01-22T20:50:34.753Z,3.50
2023-01-22T20:53:21.162Z,3.50
2023-01-22T20:56:09.817Z,3.50
2023-01-22T20:58:57.562Z,3.50
2023-01-22T21:01:44.452Z,3.50
2023-01-22T21:04:32.098Z,3.50
2023-01-22T21:07:18.782Z,3.50
2023-01-22T21:10:05.688Z,3.50
2023-01-22T21:12:52.374Z,3.50
2023-01-22T21:15:38.812Z,3.50
2023-01-22T21:18:25.917Z,3.50
2023-01-22T21:21:17.651Z,3.60
2023-01-22T21:24:04.346Z,3.50
2023-01-22T21:26:51.496Z,3.50
2023-01-22T21:29:37.971Z,3.50
2023-01-22T21:32:24.433Z,3.50
2023-01-22T21:35:11.560Z,3.50
2023-01-22T21:37:59.467Z,3.50
2023-01-22T21:40:46.148Z,3.50
2023-01-22T21:43:50.239Z,3.50
2023-01-22T21:46:38.449Z,3.50
2023-01-22T21:49:24.952Z,3.50
2023-01-22T21:52:11.368Z,3.50
2023-01-22T21:54:59.189Z,3.50
2023-01-22T21:57:45.925Z,3.50
2023-01-22T22:00:32.697Z,3.50
2023-01-22T22:03:19.184Z,3.50
2023-01-22T22:06:05.952Z,3.50
2023-01-22T22:08:52.412Z,3.50
2023-01-22T22:11:40.172Z,3.50
2023-01-22T22:14:26.732Z,3.50
2023-01-22T22:17:13.061Z,3.50
2023-01-22T22:19:59.433Z,3.50
2023-01-22T22:22:46.009Z,3.50
2023-01-22T22:25:33.591Z,3.60
2023-01-22T22:28:21.540Z,3.50
2023-01-22T22:31:11.747Z,3.50
2023-01-22T22:33:58.784Z,3.50
2023-01-22T22:36:45.389Z,3.50
2023-01-22T22:39:31.702Z,3.50
2023-01-22T22:42:18.122Z,3.50
2023-01-22T22:45:06.809Z,3.50
2023-01-22T22:47:53.515Z,3.50
2023-01-22T22:50:40.976Z,3.50
2023-01-22T22:53:27.706Z,3.40
2023-01-22T22:56:15.533Z,3.40
2023-01-22T22:59:03.037Z,3.40
2023-01-22T23:01:51.697Z,3.50
2023-01-22T23:04:38.299Z,3.40
2023-01-22T23:07:24.564Z,3.50
2023-01-22T23:10:28.626Z,3.50
2023-01-22T23:13:15.449Z,3.40
2023-01-22T23:16:03.120Z,3.50
2023-01-22T23:18:52.184Z,3.40
2023-01-22T23:21:41.565Z,3.40
2023-01-22T23:24:28.790Z,3.50
2023-01-22T23:27:15.219Z,3.50
2023-01-22T23:30:01.562Z,3.50
2023-01-22T23:32:47.892Z,3.50
2023-01-22T23:35:35.637Z,3.50
2023-01-22T23:38:22.779Z,3.40
2023-01-22T23:41:15.713Z,3.40
2023-01-22T23:44:02.456Z,3.50
2023-01-22T23:46:48.885Z,3.50
2023-01-22T23:49:35.469Z,3.50
2023-01-22T23:52:23.273Z,3.50
2023-01-22T23:55:10.779Z,3.60
2023-01-22T23:57:57.175Z,3.50
